Time;durP1;ratioP1;P1;durP2;ratioP2;P2;SDS_P1;SDS_P2;PMS_P1;PMS_P2;Temp;Humidity;BMP_temperature;BMP_pressure;BME280_temperature;BME280_humidity;BME280_pressure;Samples;Min_cycle;Max_cycle;Signal;HPM_P1;HPM_P2
2021/05/06 00:06:04;;;;;;;1.52;1.20;;;;;;;7.10;71.41;99397.67;2961391;80;21583;-58
2021/05/06 00:34:54;;;;;;;5.03;1.70;;;;;;;6.82;72.61;99386.67;2961431;80;21101;-57
2021/05/06 00:39:03;;;;;;;1.40;1.30;;;;;;;6.80;72.71;99384.64;2961410;80;21115;-57
2021/05/06 00:54:12;;;;;;;1.05;1.05;;;;;;;6.76;72.51;99390.64;2961401;80;21144;-57
2021/05/06 01:00:45;;;;;;;1.77;1.57;;;;;;;6.79;72.57;99400.14;2961127;80;21134;-57
2021/05/06 01:12:50;;;;;;;3.90;2.02;;;;;;;6.77;72.64;99410.00;2998930;77;22865;-57
2021/05/06 01:16:54;;;;;;;2.05;1.52;;;;;;;6.69;72.68;99415.43;2953020;80;21141;-57
2021/05/06 01:21:00;;;;;;;5.00;2.00;;;;;;;6.69;72.60;99417.22;2953149;80;21129;-57
2021/05/06 01:25:02;;;;;;;4.35;1.82;;;;;;;6.69;72.56;99424.68;2952744;80;21101;-57
2021/05/06 01:29:12;;;;;;;4.20;1.95;;;;;;;6.68;72.65;99430.08;2952802;80;21165;-57
2021/05/06 01:33:16;;;;;;;2.10;1.40;;;;;;;6.64;72.64;99427.33;2952729;80;21055;-57
2021/05/06 01:37:30;;;;;;;3.80;2.20;;;;;;;6.61;72.67;99434.17;2953191;80;21078;-57
2021/05/06 01:58:49;;;;;;;3.77;2.25;;;;;;;6.51;72.79;99436.70;2953197;80;21090;-57
2021/05/06 02:02:50;;;;;;;2.35;1.35;;;;;;;6.45;72.84;99438.48;2948342;79;21089;-57
2021/05/06 02:06:54;;;;;;;6.37;2.37;;;;;;;6.42;72.81;99439.09;2902169;82;21071;-57
2021/05/06 02:11:01;;;;;;;1.67;1.47;;;;;;;6.39;72.75;99439.83;2910344;81;21160;-57
2021/05/06 02:15:10;;;;;;;2.90;1.75;;;;;;;6.34;72.90;99440.18;2921202;81;21097;-57
2021/05/06 02:19:19;;;;;;;6.47;2.00;;;;;;;6.34;73.02;99436.22;2921043;81;21097;-57
2021/05/06 02:23:38;;;;;;;3.00;1.20;;;;;;;6.31;73.09;99431.18;2802339;84;21098;-57
2021/05/06 02:27:42;;;;;;;2.15;1.07;;;;;;;6.29;73.22;99441.03;2802503;85;21162;-57
2021/05/06 02:31:47;;;;;;;1.60;1.35;;;;;;;6.21;73.40;99439.44;2802316;84;21135;-57
2021/05/06 02:35:51;;;;;;;2.17;1.33;;;;;;;6.23;73.54;99442.80;2802700;84;21105;-57
2021/05/06 02:39:56;;;;;;;2.98;1.75;;;;;;;6.23;73.64;99438.84;2802549;85;21548;-57
2021/05/06 02:44:00;;;;;;;5.80;1.42;;;;;;;6.24;73.58;99445.80;2802347;83;21151;-56
2021/05/06 02:48:05;;;;;;;4.03;1.70;;;;;;;6.20;73.52;99443.05;2802400;83;21115;-56
2021/05/06 02:52:15;;;;;;;4.35;1.52;;;;;;;6.20;73.42;99444.36;2802222;85;21111;-57
2021/05/06 02:56:28;;;;;;;4.35;1.92;;;;;;;6.19;73.29;99447.97;2802359;83;21605;-58
2021/05/06 03:04:50;;;;;;;6.25;2.20;;;;;;;6.10;73.37;99450.37;2802163;83;21134;-57
2021/05/06 03:09:01;;;;;;;3.80;2.20;;;;;;;6.00;73.52;99452.84;2802556;85;21604;-57
2021/05/06 03:25:52;;;;;;;12.63;2.55;;;;;;;6.05;73.61;99455.62;2819869;84;21126;-60
2021/05/06 03:30:23;;;;;;;;;;;;;;;;;;;;;
2021/05/06 03:43:05;;;;;;;3.75;1.47;;;;;;;6.09;73.61;99472.45;2932761;80;21086;-60
2021/05/06 03:47:22;;;;;;;2.70;1.95;;;;;;;6.09;73.66;99473.77;2945655;80;21127;-59
2021/05/06 04:17:24;;;;;;;5.87;3.62;;;;;;;8.41;69.77;99506.88;2901995;82;21086;-58
2021/05/06 04:38:33;;;;;;;3.42;2.27;;;;;;;11.64;64.48;99513.92;3021671;78;21110;-59
2021/05/06 04:55:54;;;;;;;3.22;1.82;;;;;;;14.08;56.60;99513.77;2978182;78;21169;-60
2021/05/06 05:04:35;;;;;;;3.15;1.90;;;;;;;14.84;54.29;99519.34;2946613;80;21144;-60
2021/05/06 05:23:25;;;;;;;4.78;2.37;;;;;;;14.23;52.47;99529.96;2900743;80;21114;-59
2021/05/06 05:29:33;;;;;;;3.15;2.27;;;;;;;13.91;52.59;99532.14;2953735;80;21118;-60
2021/05/06 05:42:27;;;;;;;3.50;1.87;;;;;;;13.44;54.82;99534.41;2964357;80;21168;-60
2021/05/06 05:55:09;;;;;;;7.78;2.17;;;;;;;13.45;53.71;99537.42;2964159;79;21090;-59
2021/05/06 05:59:12;;;;;;;6.08;2.90;;;;;;;13.26;53.15;99530.47;2964244;80;21125;-60
2021/05/06 06:03:16;;;;;;;8.63;3.65;;;;;;;13.33;54.23;99534.67;2955568;79;21113;-59
2021/05/06 06:07:21;;;;;;;5.40;2.67;;;;;;;13.00;53.39;99539.39;2912579;81;21164;-60
2021/05/06 06:11:38;;;;;;;5.53;3.15;;;;;;;12.84;54.50;99539.64;2845784;83;21127;-59
2021/05/06 06:15:54;;;;;;;3.75;3.20;;;;;;;12.77;54.65;99529.76;2847185;83;21606;-59
2021/05/06 06:19:57;;;;;;;4.92;3.22;;;;;;;12.84;55.60;99529.48;2846366;83;21131;-59
2021/05/06 06:24:00;;;;;;;3.17;2.87;;;;;;;12.51;54.74;99520.80;2847284;83;21154;-59
2021/05/06 06:28:11;;;;;;;8.88;3.25;;;;;;;12.59;55.88;99527.17;2847072;83;21500;-60
2021/05/06 06:32:17;;;;;;;6.12;3.58;;;;;;;12.79;54.49;99521.13;2846813;83;21206;-61
2021/05/06 06:36:21;;;;;;;6.40;2.93;;;;;;;12.88;54.63;99520.67;2847325;83;21150;-61
2021/05/06 06:40:25;;;;;;;3.67;2.90;;;;;;;13.08;54.89;99519.91;2847480;83;21806;-62
2021/05/06 06:44:30;;;;;;;3.45;2.45;;;;;;;12.98;53.01;99518.70;2847091;83;21174;-62
2021/05/06 06:48:34;;;;;;;4.37;3.90;;;;;;;12.86;55.40;99512.30;2846449;83;21150;-62
2021/05/06 06:52:39;;;;;;;6.22;3.42;;;;;;;12.92;55.14;99513.49;2846662;83;21123;-61
2021/05/06 06:56:43;;;;;;;4.85;3.60;;;;;;;12.71;53.37;99510.73;2846438;83;21209;-61
2021/05/06 07:00:48;;;;;;;3.77;2.92;;;;;;;12.75;54.97;99510.41;2844931;83;21194;-61
2021/05/06 07:04:52;;;;;;;3.17;2.98;;;;;;;13.12;54.08;99503.89;2833658;83;21622;-61
2021/05/06 07:08:55;;;;;;;4.50;2.90;;;;;;;13.33;53.39;99506.63;2772599;85;21146;-61
2021/05/06 07:12:58;;;;;;;5.03;3.15;;;;;;;13.48;54.68;99498.34;2765310;85;21160;-62
2021/05/06 07:17:01;;;;;;;2.65;2.22;;;;;;;13.18;49.66;99509.94;2801733;83;21137;-62
2021/05/06 07:21:06;;;;;;;3.80;3.15;;;;;;;12.84;52.82;99508.13;2796379;84;21154;-61
2021/05/06 07:25:13;;;;;;;4.50;2.55;;;;;;;12.81;52.28;99507.94;2787326;85;21218;-61
2021/05/06 07:29:20;;;;;;;4.92;3.08;;;;;;;13.07;51.58;99512.89;2763649;86;21573;-62
2021/05/06 07:33:23;;;;;;;;;;;;;;;13.09;50.22;99499.73;2793908;84;21137;-61
2021/05/06 07:37:28;;;;;;;3.15;2.12;;;;;;;13.13;51.93;99510.91;2764283;84;20123;-61
2021/05/06 07:41:33;;;;;;;3.50;3.20;;;;;;;13.18;50.77;99505.09;2772100;84;21165;-61
2021/05/06 07:45:41;;;;;;;3.80;2.80;;;;;;;13.26;52.39;99503.77;2801904;84;21131;-61
2021/05/06 07:50:07;;;;;;;3.25;2.05;;;;;;;13.16;52.04;99497.73;2763867;85;21178;-62
2021/05/06 07:54:12;;;;;;;;;;;;;;;13.08;51.43;99503.40;2907351;81;21113;-62
2021/05/06 07:58:17;;;;;;;3.33;2.60;;;;;;;13.10;53.00;99501.88;2863230;83;20135;-62
2021/05/06 08:02:21;;;;;;;6.62;3.02;;;;;;;13.42;52.07;99507.81;2853038;83;21532;-62
2021/05/06 08:06:26;;;;;;;4.17;3.05;;;;;;;13.70;51.54;99497.37;2908100;80;21605;-62
2021/05/06 08:10:52;;;;;;;2.40;2.20;;;;;;;13.97;50.96;99496.73;2820858;84;21610;-61
2021/05/06 08:15:02;;;;;;;4.07;2.87;;;;;;;14.09;50.73;99481.19;2834276;83;21132;-61
2021/05/06 08:19:07;;;;;;;4.03;2.85;;;;;;;13.59;51.57;99494.52;2870512;81;21133;-61
2021/05/06 08:23:11;;;;;;;3.67;3.20;;;;;;;13.20;51.67;99497.74;2888018;81;21134;-61
2021/05/06 08:27:14;;;;;;;7.60;3.52;;;;;;;13.23;54.14;99498.75;2867053;82;21124;-61
2021/05/06 08:31:18;;;;;;;3.50;2.70;;;;;;;13.33;51.46;99491.93;2837090;82;21117;-62
2021/05/06 08:35:21;;;;;;;6.03;2.98;;;;;;;13.29;51.37;99498.13;2864686;82;21132;-61
2021/05/06 08:39:25;;;;;;;4.28;2.85;;;;;;;13.09;51.85;99505.55;2885453;81;21198;-62
2021/05/06 08:43:33;;;;;;;4.35;2.70;;;;;;;13.32;52.28;99502.28;2867850;82;21152;-60
2021/05/06 08:47:34;;;;;;;4.03;2.60;;;;;;;13.67;51.72;99501.23;2859294;82;21189;-61
2021/05/06 08:51:39;;;;;;;5.03;3.08;;;;;;;13.98;52.10;99495.21;2785680;84;21179;-61
2021/05/06 08:55:42;;;;;;;5.70;3.02;;;;;;;14.18;50.78;99498.06;2866834;81;21560;-60
2021/05/06 08:59:48;;;;;;;3.50;3.20;;;;;;;14.08;51.87;99501.73;2855031;82;21097;-61
2021/05/06 09:03:51;;;;;;;4.45;3.80;;;;;;;13.93;51.60;99498.89;2848939;82;21135;-60
2021/05/06 09:07:53;;;;;;;3.52;3.22;;;;;;;13.83;50.72;99494.20;2859002;82;21180;-61
2021/05/06 09:12:00;;;;;;;4.37;3.33;;;;;;;13.67;50.12;99500.38;2838750;82;21138;-60
2021/05/06 09:16:05;;;;;;;3.10;2.80;;;;;;;13.53;49.26;99497.86;2835038;83;21149;-59
2021/05/06 09:20:20;;;;;;;2.65;2.45;;;;;;;13.64;48.31;99492.70;2822289;84;21120;-59
2021/05/06 09:24:36;;;;;;;4.55;3.05;;;;;;;13.48;49.54;99493.00;2845576;82;21565;-59
2021/05/06 09:28:36;;;;;;;5.12;3.12;;;;;;;13.47;51.19;99496.67;2830804;82;21134;-59
2021/05/06 09:32:38;;;;;;;3.85;2.90;;;;;;;13.80;50.11;99487.38;2868103;81;21132;-60
2021/05/06 09:36:44;;;;;;;5.40;3.17;;;;;;;13.97;48.16;99482.03;2841638;82;21128;-60
2021/05/06 09:40:49;;;;;;;3.12;2.37;;;;;;;14.28;48.94;99479.97;2840744;82;21093;-59
2021/05/06 09:44:53;;;;;;;3.62;2.27;;;;;;;14.24;47.95;99466.61;2851085;82;21146;-59
2021/05/06 09:49:07;;;;;;;3.33;2.62;;;;;;;14.14;48.80;99468.95;2831534;82;21157;-60
2021/05/06 09:53:14;;;;;;;4.45;2.72;;;;;;;14.23;47.26;99455.06;2851424;82;21116;-58
2021/05/06 09:57:28;;;;;;;4.70;2.00;;;;;;;14.32;49.57;99460.41;2838788;81;21143;-59
2021/05/06 10:01:42;;;;;;;2.95;2.15;;;;;;;14.41;49.96;99454.88;2841071;82;21206;-59
2021/05/06 10:05:49;;;;;;;3.98;2.22;;;;;;;14.64;47.87;99446.10;2817257;82;21634;-60
2021/05/06 10:10:02;;;;;;;4.80;2.22;;;;;;;14.80;49.37;99439.05;2841705;82;21172;-60
2021/05/06 10:14:05;;;;;;;3.27;1.72;;;;;;;14.83;47.51;99444.05;2839063;82;21102;-59
2021/05/06 10:18:08;;;;;;;3.77;1.42;;;;;;;14.63;47.60;99448.45;2850705;82;21130;-60
2021/05/06 10:22:16;;;;;;;1.87;1.75;;;;;;;14.45;48.05;99445.16;2839061;82;21113;-60
2021/05/06 10:26:21;;;;;;;3.17;1.77;;;;;;;14.04;48.38;99438.05;2840662;82;21516;-60
2021/05/06 10:30:25;;;;;;;1.10;0.75;;;;;;;13.50;50.04;99446.92;2842079;82;21141;-60
2021/05/06 10:34:32;;;;;;;2.37;1.25;;;;;;;12.64;51.59;99477.69;2839421;82;21670;-59
2021/05/06 10:38:39;;;;;;;1.87;1.30;;;;;;;12.13;54.28;99481.03;2843252;82;21216;-60
2021/05/06 10:42:42;;;;;;;2.20;1.50;;;;;;;11.82;56.51;99492.59;2851166;83;21155;-59
2021/05/06 10:46:58;;;;;;;2.47;1.92;;;;;;;11.69;55.74;99478.33;2841552;82;21108;-59
2021/05/06 10:51:02;;;;;;;4.22;2.65;;;;;;;11.82;57.45;99504.09;2833096;82;21145;-60
2021/05/06 10:55:10;;;;;;;3.35;2.45;;;;;;;12.08;59.32;99494.00;2832151;82;21588;-59
2021/05/06 10:59:27;;;;;;;1.57;1.45;;;;;;;12.67;60.71;99491.19;2851351;83;21094;-59
2021/05/06 11:03:32;;;;;;;2.52;1.10;;;;;;;13.53;60.82;99486.66;2833925;83;21189;-60
2021/05/06 11:07:35;;;;;;;2.52;1.12;;;;;;;14.19;57.84;99490.37;2843892;82;21646;-59
2021/05/06 11:11:38;;;;;;;2.10;0.88;;;;;;;14.52;56.31;99491.63;2855398;82;21139;-59
2021/05/06 11:15:41;;;;;;;1.30;1.20;;;;;;;14.48;53.67;99486.29;2836583;83;21151;-59
2021/05/06 11:19:44;;;;;;;3.30;1.45;;;;;;;14.47;56.64;99490.82;2816996;84;21184;-59
2021/05/06 11:23:51;;;;;;;1.50;0.98;;;;;;;14.78;54.39;99489.26;2796842;85;21141;-60
2021/05/06 11:27:56;;;;;;;;;;;;;;;15.04;54.76;99480.95;2824999;84;21085;-59
2021/05/06 11:31:58;;;;;;;1.17;1.00;;;;;;;14.93;51.31;99476.79;2822463;84;20122;-59
2021/05/06 11:36:19;;;;;;;3.55;2.00;;;;;;;14.45;52.55;99475.94;2822355;84;21120;-59
2021/05/06 11:40:31;;;;;;;2.42;1.30;;;;;;;13.91;55.21;99474.17;2817562;84;21170;-59
2021/05/06 11:44:29;;;;;;;1.82;1.72;;;;;;;13.21;58.64;99488.73;2821099;84;21097;-59
2021/05/06 11:48:54;;;;;;;2.75;2.15;;;;;;;12.65;60.22;99477.17;2821884;84;21141;-59
2021/05/06 11:53:01;;;;;;;1.13;1.03;;;;;;;12.33;62.29;99477.34;2821741;84;21578;-59
2021/05/06 11:57:06;;;;;;;1.55;1.45;;;;;;;12.35;62.33;99459.35;2821650;84;21113;-59
2021/05/06 12:01:09;;;;;;;1.45;1.32;;;;;;;12.47;62.21;99463.41;2821635;84;21136;-59
2021/05/06 12:05:14;;;;;;;2.17;1.00;;;;;;;12.65;61.46;99444.67;2821655;83;21225;-59
2021/05/06 12:09:26;;;;;;;2.12;1.57;;;;;;;12.84;61.77;99433.41;2822087;84;21172;-59
2021/05/06 12:13:35;;;;;;;2.47;1.07;;;;;;;13.12;59.12;99423.30;2824403;84;21120;-59
2021/05/06 12:17:38;;;;;;;1.27;1.17;;;;;;;13.40;58.44;99420.84;2828935;84;21127;-59
2021/05/06 12:21:54;;;;;;;1.57;1.40;;;;;;;13.83;59.32;99422.03;2811891;83;21165;-59
2021/05/06 12:25:56;;;;;;;1.93;1.73;;;;;;;14.17;60.15;99416.98;2812052;84;21107;-60
2021/05/06 12:30:05;;;;;;;2.72;1.50;;;;;;;14.35;57.37;99418.12;2812165;84;21186;-59
2021/05/06 12:34:18;;;;;;;1.57;1.37;;;;;;;14.24;54.47;99409.92;2812165;84;21140;-59
2021/05/06 12:38:21;;;;;;;3.90;1.30;;;;;;;14.20;56.18;99414.47;2812100;83;21113;-60
2021/05/06 12:42:30;;;;;;;21.68;1.65;;;;;;;14.25;56.82;99410.77;2787275;84;21145;-61
2021/05/06 12:46:35;;;;;;;2.60;1.60;;;;;;;14.22;57.84;99407.93;2775077;85;21192;-61
2021/05/06 12:50:38;;;;;;;2.65;1.95;;;;;;;14.13;56.17;99395.08;2850260;82;21166;-60
2021/05/06 12:54:43;;;;;;;2.45;1.60;;;;;;;13.98;57.66;99400.30;2835801;83;21137;-63
2021/05/06 12:58:46;;;;;;;3.22;1.27;;;;;;;13.69;56.03;99387.47;2830775;83;21531;-61
2021/05/06 13:02:50;;;;;;;2.45;1.50;;;;;;;13.42;57.73;99392.13;2835080;83;21588;-61
2021/05/06 13:07:05;;;;;;;2.37;1.87;;;;;;;13.51;58.15;99378.30;2827322;83;21655;-61
2021/05/06 13:11:11;;;;;;;2.02;1.82;;;;;;;13.76;59.45;99396.98;2830106;83;21113;-61
2021/05/06 13:15:15;;;;;;;2.10;1.90;;;;;;;13.79;58.96;99394.83;2838196;82;21607;-62
2021/05/06 13:19:21;;;;;;;3.03;2.70;;;;;;;13.52;59.98;99392.81;2840642;82;21165;-62
2021/05/06 13:23:31;;;;;;;3.02;1.75;;;;;;;13.30;59.56;99378.27;2827783;82;21144;-60
2021/05/06 13:27:39;;;;;;;4.10;2.00;;;;;;;13.24;61.35;99378.42;2828434;82;21599;-60
2021/05/06 13:31:47;;;;;;;3.65;2.45;;;;;;;13.43;61.15;99369.79;2835245;81;21571;-62
2021/05/06 13:36:14;;;;;;;2.12;1.47;;;;;;;13.63;60.28;99376.13;2828422;82;21212;-62
2021/05/06 13:40:18;;;;;;;;;;;;;;;13.74;59.38;99375.77;2806075;83;21124;-60
2021/05/06 13:44:25;;;;;;;4.22;2.22;;;;;;;13.88;61.15;99377.42;2844630;81;20167;-59
2021/05/06 13:48:29;;;;;;;4.33;2.22;;;;;;;13.96;60.74;99362.20;2851179;82;21164;-62
2021/05/06 13:52:32;;;;;;;2.95;2.30;;;;;;;14.01;60.15;99361.70;2864305;81;21156;-61
2021/05/06 13:56:37;;;;;;;4.35;2.15;;;;;;;14.06;61.19;99367.88;2861161;83;21105;-62
2021/05/06 14:00:47;;;;;;;1.77;1.57;;;;;;;14.19;59.91;99353.97;2861277;81;21153;-62
2021/05/06 14:04:59;;;;;;;3.58;1.95;;;;;;;14.44;61.13;99346.66;2881789;81;21107;-60
2021/05/06 14:09:06;;;;;;;2.02;1.57;;;;;;;14.77;59.81;99343.03;2859991;83;21571;-61
2021/05/06 14:13:11;;;;;;;3.83;1.35;;;;;;;15.19;58.59;99337.72;2827853;82;21200;-61
2021/05/06 14:17:15;;;;;;;1.60;1.20;;;;;;;15.31;54.07;99315.84;2827168;83;21156;-60
2021/05/06 14:21:25;;;;;;;2.33;1.02;;;;;;;15.09;55.11;99322.39;2825523;84;21134;-61
2021/05/06 14:25:29;;;;;;;2.10;1.22;;;;;;;14.78;54.60;99316.07;2811177;84;21154;-62
2021/05/06 14:29:34;;;;;;;2.60;1.32;;;;;;;14.57;54.93;99319.36;2811634;84;21600;-61
2021/05/06 14:33:43;;;;;;;0.90;0.80;;;;;;;14.63;55.44;99303.92;2812347;84;21405;-62
2021/05/06 14:37:52;;;;;;;4.95;1.45;;;;;;;14.91;52.99;99302.09;2789558;84;21212;-61
2021/05/06 14:41:59;;;;;;;1.47;1.22;;;;;;;15.07;52.55;99297.63;2815788;83;21147;-62
2021/05/06 14:46:06;;;;;;;1.95;1.30;;;;;;;14.96;52.89;99304.23;2818233;83;21238;-61
2021/05/06 14:50:15;;;;;;;5.03;1.50;;;;;;;15.05;54.02;99296.49;2816073;83;21165;-61
2021/05/06 14:54:22;;;;;;;1.55;1.35;;;;;;;14.98;52.94;99284.31;2809224;83;21580;-62
2021/05/06 14:58:31;;;;;;;6.30;2.00;;;;;;;15.04;54.05;99284.61;2816236;84;21172;-61
2021/05/06 15:02:42;;;;;;;3.27;1.37;;;;;;;14.96;54.06;99282.33;2817315;83;21145;-62
2021/05/06 15:06:51;;;;;;;1.50;1.20;;;;;;;14.85;52.96;99276.04;2817140;84;21221;-61
2021/05/06 15:10:54;;;;;;;1.40;1.30;;;;;;;14.75;53.55;99265.57;2811910;83;21149;-64
2021/05/06 15:14:58;;;;;;;1.30;1.10;;;;;;;14.75;52.96;99267.43;2782138;84;21535;-64
2021/05/06 15:19:00;;;;;;;0.82;0.82;;;;;;;14.74;53.95;99277.78;2757509;86;21631;-66
2021/05/06 15:23:03;;;;;;;2.70;1.30;;;;;;;14.65;53.78;99273.80;2779679;85;21095;-62
2021/05/06 15:27:07;;;;;;;2.95;1.40;;;;;;;14.68;54.27;99286.01;2779684;85;21594;-61
2021/05/06 15:31:10;;;;;;;1.60;0.88;;;;;;;14.65;53.74;99280.49;2783837;84;21156;-61
2021/05/06 15:35:17;;;;;;;2.52;1.60;;;;;;;14.68;54.63;99262.73;2777337;85;21189;-62
2021/05/06 15:39:19;;;;;;;1.98;1.27;;;;;;;14.65;52.81;99272.47;2786261;84;21124;-61
2021/05/06 15:43:23;;;;;;;2.27;0.88;;;;;;;14.73;54.77;99264.07;2811089;84;21190;-61
2021/05/06 15:47:28;;;;;;;1.25;1.15;;;;;;;14.83;54.70;99255.31;2781239;84;21133;-61
2021/05/06 15:51:32;;;;;;;1.82;1.47;;;;;;;14.74;53.70;99266.58;2809969;83;21124;-62
2021/05/06 15:55:37;;;;;;;5.85;2.05;;;;;;;14.57;54.61;99259.97;2807669;84;21165;-61
2021/05/06 15:59:41;;;;;;;1.50;1.30;;;;;;;14.42;55.26;99251.02;2810058;84;21113;-61
2021/05/06 16:03:57;;;;;;;7.23;2.50;;;;;;;14.27;54.67;99262.98;2806439;84;21161;-60
2021/05/06 16:07:57;;;;;;;2.35;1.35;;;;;;;14.11;55.38;99266.06;2811316;83;21136;-61
2021/05/06 16:12:00;;;;;;;3.75;1.15;;;;;;;13.97;56.36;99260.13;2785817;84;21567;-61
2021/05/06 16:16:04;;;;;;;5.03;1.67;;;;;;;13.81;56.93;99261.84;2837453;82;21149;-61
2021/05/06 16:20:15;;;;;;;1.17;1.07;;;;;;;13.78;57.49;99256.00;2831536;83;21595;-61
2021/05/06 16:24:19;;;;;;;2.05;1.50;;;;;;;13.71;56.56;99259.86;2877446;81;21123;-62
2021/05/06 16:28:22;;;;;;;2.75;1.32;;;;;;;13.61;56.30;99253.89;2860632;82;21163;-61
2021/05/06 16:32:25;;;;;;;2.20;2.00;;;;;;;13.50;55.58;99253.23;2877939;81;21161;-61
2021/05/06 16:40:47;;;;;;;2.85;1.80;;;;;;;13.39;57.38;99246.89;2830228;82;21196;-61
2021/05/06 16:44:47;;;;;;;4.53;2.00;;;;;;;13.36;57.30;99240.53;2842668;82;21142;-62
2021/05/06 16:48:51;;;;;;;4.03;2.67;;;;;;;13.31;58.34;99244.22;2876405;81;21121;-62
2021/05/06 16:52:55;;;;;;;2.63;2.37;;;;;;;13.22;58.21;99244.73;2833486;82;21824;-62
2021/05/06 16:57:02;;;;;;;3.10;2.17;;;;;;;13.10;58.52;99246.91;2798591;83;21192;-62
2021/05/06 17:01:08;;;;;;;3.17;1.80;;;;;;;12.98;59.00;99251.75;2818732;82;21165;-62
2021/05/06 17:05:14;;;;;;;3.75;2.12;;;;;;;12.83;59.64;99253.75;2855212;81;21143;-63
2021/05/06 17:09:20;;;;;;;2.42;2.25;;;;;;;12.77;60.46;99246.41;2877873;81;21132;-61
2021/05/06 17:13:24;;;;;;;4.12;2.27;;;;;;;12.66;60.91;99242.23;2878027;81;21173;-61
2021/05/06 17:17:40;;;;;;;5.15;1.90;;;;;;;12.56;61.04;99239.72;2839435;82;21582;-62
2021/05/06 17:21:43;;;;;;;4.92;2.35;;;;;;;12.52;62.11;99238.39;2867606;82;22199;-61
2021/05/06 17:25:53;;;;;;;4.70;2.98;;;;;;;12.32;62.42;99231.16;2855715;83;21134;-61
2021/05/06 17:34:37;;;;;;;3.15;2.20;;;;;;;11.99;63.54;99221.73;2711947;87;22018;-62
2021/05/06 17:38:42;;;;;;;5.50;2.35;;;;;;;11.85;63.87;99219.16;2709353;87;21148;-61
2021/05/06 17:42:46;;;;;;;5.50;2.80;;;;;;;11.75;64.84;99221.13;2712145;86;21639;-62
2021/05/06 17:46:51;;;;;;;2.80;2.30;;;;;;;11.59;65.94;99220.05;2711034;87;21158;-61
2021/05/06 17:50:56;;;;;;;3.15;2.50;;;;;;;11.44;66.97;99218.47;2647318;88;21150;-62
2021/05/06 17:54:59;;;;;;;7.28;3.00;;;;;;;11.37;68.44;99212.09;2711897;87;21631;-61
2021/05/06 17:59:03;;;;;;;3.72;2.98;;;;;;;11.27;68.95;99219.70;2709314;87;21212;-61
2021/05/06 18:03:06;;;;;;;3.58;2.45;;;;;;;11.18;69.07;99211.30;2714336;86;21200;-62
2021/05/06 18:07:10;;;;;;;6.92;5.55;;;;;;;11.16;68.20;99209.30;2748668;85;21173;-62
2021/05/06 18:15:29;;;;;;;5.50;3.65;;;;;;;11.27;67.51;99218.85;2744668;86;21210;-63
2021/05/06 18:19:35;;;;;;;16.48;4.33;;;;;;;11.33;67.18;99218.73;2749469;86;21135;-63
2021/05/06 18:23:38;;;;;;;6.27;3.70;;;;;;;11.38;67.52;99189.31;2750047;86;21182;-63
2021/05/06 18:27:41;;;;;;;6.35;4.85;;;;;;;11.38;67.52;99189.31;2749783;86;21612;-61
2021/05/06 18:31:44;;;;;;;4.85;3.77;;;;;;;11.50;67.23;99204.52;2747241;86;21209;-60
2021/05/06 18:35:50;;;;;;;4.28;3.52;;;;;;;11.52;67.35;99195.88;2693333;88;21179;-62
2021/05/06 18:39:56;;;;;;;8.13;4.87;;;;;;;11.57;67.59;99200.22;2693841;88;21146;-61
2021/05/06 18:43:59;;;;;;;13.15;4.58;;;;;;;11.55;67.85;99196.88;2690532;88;21146;-61
2021/05/06 18:48:04;;;;;;;7.37;4.70;;;;;;;11.58;67.83;99201.88;2673225;88;21210;-61
2021/05/06 18:52:07;;;;;;;8.20;4.62;;;;;;;11.62;67.64;99206.41;2703750;87;21201;-61
2021/05/06 18:56:11;;;;;;;5.25;4.55;;;;;;;11.62;67.97;99212.24;2715481;86;21184;-61
2021/05/06 19:00:15;;;;;;;9.23;4.90;;;;;;;11.63;67.67;99216.58;2708955;87;21166;-62
2021/05/06 19:04:19;;;;;;;16.87;9.75;;;;;;;11.61;67.73;99223.89;2694005;87;21646;-62
2021/05/06 19:08:22;;;;;;;18.15;9.78;;;;;;;11.57;68.70;99222.86;2695286;87;22363;-61
2021/05/06 19:12:26;;;;;;;12.45;7.87;;;;;;;11.45;70.21;99229.46;2732348;86;21157;-61
2021/05/06 19:16:29;;;;;;;14.95;8.68;;;;;;;11.30;70.65;99222.55;2729072;86;21578;-61
2021/05/06 19:20:33;;;;;;;16.27;8.98;;;;;;;11.22;71.23;99223.34;2730149;86;21591;-62
2021/05/06 19:24:38;;;;;;;13.60;6.62;;;;;;;11.07;71.62;99219.05;2681783;88;21802;-61
2021/05/06 19:28:41;;;;;;;7.37;6.03;;;;;;;10.93;72.13;99218.30;2668415;88;21161;-62
2021/05/06 19:32:47;;;;;;;13.03;6.70;;;;;;;10.93;72.03;99208.48;2722255;86;21159;-61
2021/05/06 19:36:53;;;;;;;10.10;6.22;;;;;;;11.03;71.67;99204.91;2738437;86;21602;-61
2021/05/06 19:40:55;;;;;;;6.97;5.20;;;;;;;11.09;71.10;99204.27;2751483;85;21153;-62
2021/05/06 19:45:00;;;;;;;17.35;9.00;;;;;;;11.10;70.82;99200.14;2734774;86;21145;-61
2021/05/06 19:49:04;;;;;;;35.10;15.58;;;;;;;11.03;70.65;99200.91;2735019;86;21105;-61
2021/05/06 19:53:09;;;;;;;48.30;26.05;;;;;;;10.98;70.89;99200.86;2783681;85;21634;-62
2021/05/06 19:57:12;;;;;;;50.12;30.37;;;;;;;11.04;70.37;99201.25;2731969;86;21172;-61
2021/05/06 20:01:17;;;;;;;130.97;80.75;;;;;;;11.02;70.59;99205.89;2771160;85;21571;-61
2021/05/06 20:05:21;;;;;;;106.20;65.70;;;;;;;10.98;71.34;99198.20;2776597;85;21109;-61
2021/05/06 20:09:27;;;;;;;55.60;33.28;;;;;;;10.96;72.03;99200.18;2773270;85;21133;-61
2021/05/06 20:13:33;;;;;;;52.62;32.70;;;;;;;10.98;72.00;99200.04;2773396;85;21140;-61
2021/05/06 20:17:35;;;;;;;22.75;15.53;;;;;;;10.98;73.10;99199.53;2758500;85;21128;-61
2021/05/06 20:21:56;;;;;;;13.70;9.23;;;;;;;11.03;74.45;99194.26;2772201;85;21184;-61
2021/05/06 20:25:56;;;;;;;19.32;10.95;;;;;;;11.12;74.93;99187.98;2782208;85;21195;-61
2021/05/06 20:30:00;;;;;;;15.32;10.63;;;;;;;11.21;73.62;99192.39;2732554;86;21192;-61
2021/05/06 20:34:05;;;;;;;15.85;9.75;;;;;;;11.32;72.83;99191.77;2718920;86;21647;-61
2021/05/06 20:38:10;;;;;;;27.62;15.90;;;;;;;11.40;72.57;99198.48;2768824;85;21645;-61
2021/05/06 20:42:17;;;;;;;29.40;18.90;;;;;;;11.48;73.42;99203.84;2772068;85;21180;-61
2021/05/06 20:46:23;;;;;;;17.85;11.55;;;;;;;11.29;73.55;99211.54;2784388;85;21555;-61
2021/05/06 20:50:27;;;;;;;9.13;5.92;;;;;;;11.11;74.38;99217.77;2777128;84;21149;-60
2021/05/06 20:54:34;;;;;;;15.00;6.50;;;;;;;11.02;74.38;99209.37;2781611;84;21153;-61
2021/05/06 20:58:36;;;;;;;7.37;4.90;;;;;;;11.00;74.92;99208.22;2784146;84;21157;-61
2021/05/06 21:02:39;;;;;;;19.55;14.00;;;;;;;11.00;76.33;99199.39;2783834;85;21144;-59
2021/05/06 21:06:42;;;;;;;31.00;21.73;;;;;;;10.92;77.22;99201.48;2742953;85;21569;-59
2021/05/06 21:10:45;;;;;;;54.27;31.42;;;;;;;10.90;77.80;99192.83;2783575;85;21565;-59
2021/05/06 21:14:48;;;;;;;21.10;11.18;;;;;;;10.86;77.91;99193.63;2702800;87;21561;-60
2021/05/06 21:18:51;;;;;;;13.85;7.45;;;;;;;10.75;77.62;99185.91;2749654;85;21606;-59
2021/05/06 21:22:57;;;;;;;11.75;8.53;;;;;;;10.82;77.97;99174.98;2796195;84;21546;-60
2021/05/06 21:27:02;;;;;;;11.63;7.33;;;;;;;10.81;78.12;99175.15;2776923;84;21625;-60
2021/05/06 21:31:05;;;;;;;12.68;7.75;;;;;;;10.75;78.39;99172.61;2771956;85;21183;-60
2021/05/06 21:35:10;;;;;;;15.85;9.33;;;;;;;10.79;78.86;99177.10;2720549;86;21141;-60
2021/05/06 21:39:15;;;;;;;15.00;10.48;;;;;;;10.73;78.90;99175.92;2707886;86;21177;-60
2021/05/06 21:43:21;;;;;;;23.40;15.78;;;;;;;10.81;79.35;99179.14;2667350;88;21232;-60
2021/05/06 21:47:24;;;;;;;22.40;11.25;;;;;;;10.88;78.57;99170.87;2728067;86;21196;-60
2021/05/06 21:51:29;;;;;;;21.93;11.00;;;;;;;10.88;78.22;99166.03;2731802;85;21572;-60
2021/05/06 21:55:33;;;;;;;21.30;16.55;;;;;;;10.76;78.80;99171.61;2745098;86;21217;-59
2021/05/06 21:59:36;;;;;;;20.70;14.83;;;;;;;10.65;79.44;99167.38;2731128;86;21200;-59
2021/05/06 22:03:41;;;;;;;21.02;14.20;;;;;;;10.67;79.99;99164.06;2739221;86;21157;-59
2021/05/06 22:07:44;;;;;;;22.42;15.10;;;;;;;10.67;79.83;99162.73;2752990;85;21706;-60
2021/05/06 22:11:47;;;;;;;18.15;11.35;;;;;;;10.61;80.49;99162.51;2745965;85;21113;-59
2021/05/06 22:15:49;;;;;;;21.77;12.73;;;;;;;10.64;80.98;99166.19;2752913;85;21157;-60
2021/05/06 22:19:52;;;;;;;23.42;14.23;;;;;;;10.68;81.31;99166.22;2760807;85;21143;-59
2021/05/06 22:23:58;;;;;;;130.27;78.00;;;;;;;10.63;81.37;99165.37;2753281;85;21145;-59
2021/05/06 22:28:02;;;;;;;105.58;68.52;;;;;;;10.54;81.27;99159.62;2754646;85;21569;-58
2021/05/06 22:32:06;;;;;;;39.55;26.87;;;;;;;10.43;82.08;99160.22;2756401;85;21230;-59
2021/05/06 22:36:10;;;;;;;34.33;22.45;;;;;;;10.39;82.54;99157.98;2758105;85;21221;-59
2021/05/06 22:40:14;;;;;;;30.23;20.30;;;;;;;10.37;82.08;99155.45;2766140;85;21101;-58